Time;durP1;ratioP1;P1;durP2;ratioP2;P2;SDS_P1;SDS_P2;PMS_P1;PMS_P2;Temp;Humidity;BMP_temperature;BMP_pressure;BME280_temperature;BME280_humidity;BME280_pressure;Samples;Min_cycle;Max_cycle;Signal;HPM_P1;HPM_P2
2021/08/01 00:00:22;;;;;;;9.20;5.80;;;;;;;13.88;100.00;95110.88;1045045;28;20043;-62
2021/08/01 00:00:53;;;;;;;8.55;4.85;;;;;;;13.86;100.00;95113.03;1047131;28;20016;-63
2021/08/01 00:01:23;;;;;;;6.13;5.25;;;;;;;13.85;100.00;95106.19;1042559;28;20494;-63
2021/08/01 00:01:54;;;;;;;10.88;6.38;;;;;;;13.85;100.00;95108.06;1035773;28;20056;-62
2021/08/01 00:02:25;;;;;;;11.73;6.03;;;;;;;13.87;100.00;95109.31;1041656;28;20017;-63
2021/08/01 00:02:56;;;;;;;11.40;6.40;;;;;;;13.89;100.00;95109.03;1042790;28;20028;-63
2021/08/01 00:03:30;;;;;;;16.42;6.57;;;;;;;13.85;100.00;95114.13;1040250;28;20504;-63
2021/08/01 00:04:00;;;;;;;12.98;6.35;;;;;;;13.88;100.00;95112.72;1044276;28;20017;-62
2021/08/01 00:04:31;;;;;;;8.48;5.28;;;;;;;13.86;100.00;95117.53;1044360;28;20013;-63
2021/08/01 00:05:01;;;;;;;11.02;6.00;;;;;;;13.78;100.00;95105.84;1043285;28;20070;-64
2021/08/01 00:05:31;;;;;;;8.30;6.65;;;;;;;13.86;100.00;95123.56;1038819;28;20057;-63
2021/08/01 00:06:04;;;;;;;12.00;8.05;;;;;;;13.92;100.00;95113.69;1037943;28;20025;-63
2021/08/01 00:06:35;;;;;;;9.55;6.78;;;;;;;13.88;100.00;95118.78;1030320;28;20026;-63
2021/08/01 00:07:05;;;;;;;8.57;7.07;;;;;;;13.91;100.00;95120.81;1030589;28;20026;-63
2021/08/01 00:07:36;;;;;;;15.10;6.78;;;;;;;13.93;100.00;95123.16;1035224;28;20053;-64
2021/08/01 00:08:07;;;;;;;10.55;6.68;;;;;;;13.93;100.00;95132.94;1038205;28;20463;-63
2021/08/01 00:08:39;;;;;;;9.32;5.40;;;;;;;13.83;100.00;95104.94;1042652;28;20013;-62
2021/08/01 00:09:09;;;;;;;9.98;5.78;;;;;;;13.91;100.00;95128.72;1038853;28;20021;-63
2021/08/01 00:09:40;;;;;;;12.38;6.28;;;;;;;13.85;100.00;95111.47;1038254;28;20419;-63
2021/08/01 00:10:13;;;;;;;9.43;7.45;;;;;;;13.97;100.00;95126.75;1034794;28;20018;-64
2021/08/01 00:10:44;;;;;;;10.05;8.55;;;;;;;13.97;100.00;95124.13;1038673;28;20056;-63
2021/08/01 00:11:14;;;;;;;12.65;5.60;;;;;;;13.93;100.00;95120.53;1035852;28;20722;-63
2021/08/01 00:11:48;;;;;;;13.15;7.03;;;;;;;13.98;100.00;95119.63;1039066;28;20395;-63
2021/08/01 00:12:18;;;;;;;14.15;7.93;;;;;;;13.99;100.00;95126.47;1042392;28;20532;-62
2021/08/01 00:12:49;;;;;;;13.63;7.13;;;;;;;13.99;100.00;95126.47;1042383;28;20259;-62
2021/08/01 00:13:19;;;;;;;10.90;6.55;;;;;;;13.98;100.00;95125.66;1034632;28;20266;-62
2021/08/01 00:13:50;;;;;;;10.75;6.68;;;;;;;14.00;100.00;95128.81;1031083;28;20070;-63
2021/08/01 00:14:20;;;;;;;10.80;7.85;;;;;;;14.04;100.00;95128.97;1032537;28;20298;-63
2021/08/01 00:14:50;;;;;;;10.18;7.38;;;;;;;14.05;100.00;95127.91;1034802;28;20069;-63
2021/08/01 00:15:21;;;;;;;8.65;6.03;;;;;;;14.05;100.00;95130.53;1040505;28;20036;-63
2021/08/01 00:15:51;;;;;;;12.57;6.35;;;;;;;14.07;100.00;95133.66;1039475;28;20026;-64
2021/08/01 00:16:23;;;;;;;12.43;6.10;;;;;;;14.10;100.00;95138.34;1042749;28;20029;-63
2021/08/01 00:16:58;;;;;;;10.38;5.93;;;;;;;14.09;100.00;95123.59;1038228;28;20052;-63
2021/08/01 00:17:29;;;;;;;8.10;6.32;;;;;;;14.08;100.00;95129.94;1034178;28;20010;-62
2021/08/01 00:17:59;;;;;;;8.88;6.05;;;;;;;14.09;100.00;95136.78;1034418;28;20030;-63
2021/08/01 00:18:30;;;;;;;12.55;6.25;;;;;;;14.10;100.00;95130.44;1036394;28;20018;-64
2021/08/01 00:19:00;;;;;;;10.30;6.68;;;;;;;14.08;100.00;95129.94;1040372;28;20033;-64
2021/08/01 00:19:31;;;;;;;10.10;7.45;;;;;;;14.10;100.00;95130.44;1044712;28;20368;-64
2021/08/01 00:20:01;;;;;;;8.63;6.38;;;;;;;14.09;100.00;95127.00;1039641;28;20022;-62
2021/08/01 00:20:32;;;;;;;10.43;5.00;;;;;;;14.06;100.00;95135.53;1039489;28;20045;-62
2021/08/01 00:21:03;;;;;;;8.90;5.68;;;;;;;14.09;100.00;95129.66;1032121;28;20449;-63
2021/08/01 00:21:34;;;;;;;14.18;7.50;;;;;;;14.12;100.00;95123.78;1037105;28;20040;-62
2021/08/01 00:22:04;;;;;;;11.68;7.22;;;;;;;14.11;100.00;95129.34;1038822;28;20380;-64
2021/08/01 00:22:35;;;;;;;11.80;5.90;;;;;;;14.10;100.00;95130.44;1035879;28;20097;-62
2021/08/01 00:23:05;;;;;;;8.10;6.40;;;;;;;14.09;100.00;95124.38;1047377;28;20044;-63
2021/08/01 00:23:36;;;;;;;10.60;6.18;;;;;;;14.11;100.00;95126.72;1044947;28;20033;-63
2021/08/01 00:24:06;;;;;;;10.90;6.80;;;;;;;14.15;100.00;95130.28;1039586;28;20021;-64
2021/08/01 00:24:36;;;;;;;10.60;7.18;;;;;;;14.17;100.00;95127.38;1042066;28;20032;-63
2021/08/01 00:25:08;;;;;;;10.18;7.30;;;;;;;14.18;100.00;95127.06;1039093;28;20075;-63
2021/08/01 00:25:38;;;;;;;16.10;7.78;;;;;;;14.23;100.00;95121.69;1043610;28;20779;-63
2021/08/01 00:26:12;;;;;;;15.75;7.75;;;;;;;14.21;100.00;95125.69;1044857;28;20021;-63
2021/08/01 00:26:43;;;;;;;12.57;7.90;;;;;;;14.24;100.00;95122.44;1047730;28;20043;-65
2021/08/01 00:27:13;;;;;;;11.88;7.85;;;;;;;14.28;100.00;95123.41;1043294;28;20024;-63
2021/08/01 00:27:44;;;;;;;17.10;7.60;;;;;;;14.27;100.00;95124.50;1043636;28;20029;-62
2021/08/01 00:28:14;;;;;;;10.85;5.78;;;;;;;14.25;100.00;95130.09;1047728;28;20020;-63
2021/08/01 00:28:45;;;;;;;12.35;6.65;;;;;;;14.28;100.00;95126.81;1047550;28;20111;-64
2021/08/01 00:29:15;;;;;;;10.75;5.55;;;;;;;14.26;100.00;95129.00;1052078;28;20404;-64
2021/08/01 00:29:46;;;;;;;10.45;6.45;;;;;;;14.22;100.00;95125.41;1047342;28;20021;-63
2021/08/01 00:30:16;;;;;;;6.85;5.60;;;;;;;14.23;100.00;95126.97;1048128;28;20029;-63
2021/08/01 00:30:46;;;;;;;9.55;4.93;;;;;;;14.18;100.00;95127.06;1043375;28;20025;-64
2021/08/01 00:31:17;;;;;;;17.75;6.45;;;;;;;14.18;100.00;95129.69;1041057;28;20021;-62
2021/08/01 00:31:47;;;;;;;10.27;7.05;;;;;;;14.21;100.00;95130.97;1041258;28;20475;-64
2021/08/01 00:32:18;;;;;;;11.30;7.63;;;;;;;14.23;100.00;95126.97;1043497;28;20502;-63
2021/08/01 00:32:51;;;;;;;8.82;6.05;;;;;;;14.24;100.00;95123.22;1039182;28;20376;-63
2021/08/01 00:33:21;;;;;;;7.47;6.18;;;;;;;14.23;100.00;95126.19;1044904;28;20032;-63
2021/08/01 00:33:52;;;;;;;14.02;4.93;;;;;;;14.19;100.00;95128.63;1039206;28;20044;-64
2021/08/01 00:34:25;;;;;;;8.00;5.97;;;;;;;14.21;100.00;95129.09;1039781;28;20021;-64
2021/08/01 00:34:55;;;;;;;19.83;5.95;;;;;;;14.11;100.00;95121.44;1042936;28;20024;-63
2021/08/01 00:35:26;;;;;;;10.18;6.25;;;;;;;14.17;100.00;95128.16;1039220;28;20825;-64
2021/08/01 00:35:57;;;;;;;9.82;6.93;;;;;;;14.14;100.00;95139.31;1039341;28;20021;-64
2021/08/01 00:36:27;;;;;;;8.60;5.22;;;;;;;14.10;100.00;95128.56;1033678;28;20025;-64
2021/08/01 00:36:58;;;;;;;11.48;5.28;;;;;;;13.97;100.00;95123.34;1035163;28;20033;-64
2021/08/01 00:37:28;;;;;;;8.38;4.78;;;;;;;14.02;100.00;95137.22;1035243;28;20052;-64
2021/08/01 00:37:59;;;;;;;12.05;5.13;;;;;;;14.00;100.00;95138.56;1035001;28;20648;-62
2021/08/01 00:38:29;;;;;;;7.97;5.18;;;;;;;13.97;100.00;95139.16;1039598;28;20013;-64
2021/08/01 00:39:00;;;;;;;10.18;4.93;;;;;;;13.94;100.00;95132.63;1039659;28;20028;-63
2021/08/01 00:39:30;;;;;;;11.55;5.60;;;;;;;13.95;100.00;95143.97;1038400;28;20032;-63
2021/08/01 00:40:01;;;;;;;11.15;5.88;;;;;;;13.96;100.00;95137.63;1033422;28;20081;-64
2021/08/01 00:40:31;;;;;;;9.93;4.78;;;;;;;13.97;100.00;95144.44;1031462;28;20559;-62
2021/08/01 00:41:02;;;;;;;10.98;5.38;;;;;;;13.90;100.00;95135.09;1032667;28;20026;-62
2021/08/01 00:41:33;;;;;;;8.50;4.80;;;;;;;13.90;100.00;95139.59;1035140;28;20048;-62
2021/08/01 00:42:04;;;;;;;6.53;4.97;;;;;;;13.88;100.00;95145.16;1028266;28;20030;-64
2021/08/01 00:42:34;;;;;;;12.85;5.13;;;;;;;13.87;100.00;95140.94;1031953;28;20030;-64
2021/08/01 00:43:08;;;;;;;8.15;5.03;;;;;;;13.84;100.00;95141.53;1036088;28;20097;-63
2021/08/01 00:43:38;;;;;;;9.20;6.20;;;;;;;13.87;100.00;95143.59;1041372;28;20840;-63
2021/08/01 00:44:08;;;;;;;9.90;5.45;;;;;;;13.87;100.00;95146.22;1047573;28;20138;-63
2021/08/01 00:44:39;;;;;;;10.90;8.10;;;;;;;13.83;100.00;95124.16;1039195;28;20427;-63
2021/08/01 00:45:10;;;;;;;7.00;5.50;;;;;;;13.88;100.00;95145.16;1031263;28;20026;-63
2021/08/01 00:45:43;;;;;;;10.60;6.10;;;;;;;13.88;100.00;95137.25;1032447;28;20034;-63
2021/08/01 00:46:13;;;;;;;7.53;5.50;;;;;;;13.84;100.00;95141.53;1028092;28;20373;-63
2021/08/01 00:46:44;;;;;;;8.02;6.25;;;;;;;13.85;100.00;95142.34;1033068;28;20058;-63
2021/08/01 00:47:15;;;;;;;10.82;6.45;;;;;;;13.82;100.00;95135.81;1032236;28;20041;-63
2021/08/01 00:47:45;;;;;;;14.98;6.47;;;;;;;13.88;100.00;95136.44;1035309;28;20508;-63
2021/08/01 00:48:15;;;;;;;10.15;6.70;;;;;;;13.87;100.00;95140.19;1041722;28;20572;-63
2021/08/01 00:48:46;;;;;;;12.55;7.18;;;;;;;13.83;100.00;95133.94;1039697;28;20022;-63
2021/08/01 00:49:16;;;;;;;9.93;5.68;;;;;;;13.84;100.00;95136.28;1037616;28;20057;-63
2021/08/01 00:49:47;;;;;;;11.50;7.03;;;;;;;13.77;100.00;95128.00;1043695;28;20024;-63
2021/08/01 00:50:18;;;;;;;8.57;5.45;;;;;;;13.79;100.00;95139.03;1035707;28;20018;-63
2021/08/01 00:50:48;;;;;;;9.32;5.45;;;;;;;13.80;100.00;95135.31;1035258;28;20026;-63
2021/08/01 00:51:19;;;;;;;9.02;5.75;;;;;;;13.80;100.00;95137.94;1035191;28;20034;-62
2021/08/01 00:51:49;;;;;;;9.55;5.63;;;;;;;13.77;100.00;95141.19;1034872;28;20769;-63
2021/08/01 00:52:20;;;;;;;9.93;6.50;;;;;;;13.76;100.00;95134.34;1043172;28;20044;-62
2021/08/01 00:52:51;;;;;;;11.77;6.38;;;;;;;13.77;100.00;95141.19;1038371;28;21835;-63
2021/08/01 00:53:21;;;;;;;15.55;7.93;;;;;;;13.78;100.00;95137.47;1039540;28;20033;-63
2021/08/01 00:53:52;;;;;;;11.60;7.40;;;;;;;13.79;100.00;95139.03;1043502;28;20080;-63
2021/08/01 00:54:25;;;;;;;10.80;7.15;;;;;;;13.79;100.00;95135.63;1039841;28;20093;-63
2021/08/01 00:54:56;;;;;;;11.15;6.93;;;;;;;13.79;100.00;95140.91;1039495;28;20048;-62
2021/08/01 00:55:26;;;;;;;13.57;8.65;;;;;;;13.79;100.00;95146.94;1042448;28;20032;-63
2021/08/01 00:55:57;;;;;;;15.90;9.23;;;;;;;13.81;100.00;95136.84;1039637;28;20434;-63
2021/08/01 00:56:27;;;;;;;14.50;6.68;;;;;;;13.81;100.00;95142.13;1039736;28;20025;-63
2021/08/01 00:56:58;;;;;;;14.98;7.35;;;;;;;13.80;100.00;95140.59;1043825;28;20020;-63
2021/08/01 00:57:28;;;;;;;15.20;9.10;;;;;;;13.86;100.00;95143.91;1043340;28;20021;-63
2021/08/01 00:57:59;;;;;;;11.70;9.10;;;;;;;13.90;100.00;95145.63;1043611;28;20578;-63
2021/08/01 00:58:29;;;;;;;17.08;10.43;;;;;;;13.91;100.00;95141.91;1039702;28;20093;-63
2021/08/01 00:59:03;;;;;;;14.63;9.55;;;;;;;13.93;100.00;95144.25;1043188;28;20048;-63
2021/08/01 00:59:33;;;;;;;17.83;9.82;;;;;;;13.93;100.00;95138.22;1052208;28;20136;-63
2021/08/01 01:00:05;;;;;;;16.40;10.50;;;;;;;13.98;100.00;95146.00;1043545;28;20947;-63
2021/08/01 01:01:34;;;;;;;17.17;10.45;;;;;;;14.07;100.00;95144.22;1035078;28;20105;-63
2021/08/01 01:02:11;;;;;;;12.05;8.07;;;;;;;14.03;100.00;95151.94;1042545;28;20275;-62
2021/08/01 01:02:41;;;;;;;11.68;7.70;;;;;;;13.98;100.00;95140.72;1043991;28;20017;-63
2021/08/01 01:03:17;;;;;;;13.40;8.38;;;;;;;13.94;100.00;95145.03;1039098;28;20840;-63
2021/08/01 01:04:22;;;;;;;15.60;7.97;;;;;;;13.93;100.00;95149.53;1033141;28;20065;-63
2021/08/01 01:05:10;;;;;;;9.27;6.75;;;;;;;13.80;100.00;95143.22;1035559;28;20061;-62
2021/08/01 01:05:57;;;;;;;16.90;7.30;;;;;;;13.79;100.00;95144.31;1042191;28;20128;-62
2021/08/01 01:06:36;;;;;;;11.13;6.60;;;;;;;13.76;100.00;95155.44;1041483;28;20276;-62
2021/08/01 01:07:10;;;;;;;11.98;6.97;;;;;;;13.70;100.00;95151.34;1044533;28;20029;-63
2021/08/01 01:08:01;;;;;;;12.48;7.28;;;;;;;13.64;100.00;95153.31;1047737;28;20468;-62
2021/08/01 01:08:51;;;;;;;12.82;7.95;;;;;;;13.63;100.00;95145.72;1051737;28;20024;-62
2021/08/01 01:09:27;;;;;;;16.58;10.00;;;;;;;13.72;100.00;95143.16;1043705;28;20271;-62
2021/08/01 01:10:33;;;;;;;17.15;10.65;;;;;;;13.68;100.00;95149.03;1042046;28;20508;-63
2021/08/01 01:11:03;;;;;;;18.77;10.90;;;;;;;13.62;100.00;95133.63;1027235;28;20105;-62
2021/08/01 01:11:36;;;;;;;20.88;10.65;;;;;;;13.74;100.00;95147.03;1027179;28;20285;-62
2021/08/01 01:12:09;;;;;;;21.33;10.27;;;;;;;13.73;100.00;95139.44;1026566;28;20023;-62
2021/08/01 01:12:42;;;;;;;16.95;10.02;;;;;;;13.76;100.00;95144.13;1022964;29;20145;-62
2021/08/01 01:13:15;;;;;;;20.25;11.23;;;;;;;13.77;100.00;95143.81;1014972;29;20474;-60
2021/08/01 01:13:50;;;;;;;13.98;10.00;;;;;;;13.76;100.00;95144.91;1026788;28;20079;-62
2021/08/01 01:14:22;;;;;;;17.85;10.63;;;;;;;13.78;100.00;95153.31;1033004;28;20021;-62
2021/08/01 01:14:53;;;;;;;17.77;10.88;;;;;;;13.77;100.00;95150.94;1038166;28;20335;-63
2021/08/01 01:15:24;;;;;;;19.50;11.50;;;;;;;13.78;100.00;95152.50;1039335;28;20914;-62
2021/08/01 01:15:56;;;;;;;15.75;10.20;;;;;;;13.76;100.00;95154.66;1032285;28;20349;-62
2021/08/01 01:16:27;;;;;;;20.67;10.60;;;;;;;13.77;100.00;95150.94;1038644;28;20314;-63
2021/08/01 01:17:00;;;;;;;20.98;10.32;;;;;;;13.77;100.00;95148.31;1031011;28;20845;-63
2021/08/01 01:17:31;;;;;;;15.10;9.68;;;;;;;13.72;100.00;95149.22;1027318;28;20119;-62
2021/08/01 01:18:02;;;;;;;12.88;8.35;;;;;;;13.69;100.00;95149.81;1031078;28;20050;-62
2021/08/01 01:18:34;;;;;;;22.63;10.52;;;;;;;13.74;100.00;95151.53;1039324;28;20021;-63
2021/08/01 01:19:04;;;;;;;16.02;10.32;;;;;;;13.77;100.00;95157.00;1031215;28;20014;-62
2021/08/01 01:19:50;;;;;;;13.32;9.55;;;;;;;13.79;100.00;95160.13;1038672;28;20021;-63
2021/08/01 01:20:52;;;;;;;12.52;8.68;;;;;;;13.79;100.00;95152.22;1039446;28;20475;-63
2021/08/01 01:21:39;;;;;;;15.63;8.77;;;;;;;13.79;100.00;95154.09;1041646;28;20029;-62
2021/08/01 01:22:24;;;;;;;16.58;10.10;;;;;;;13.76;100.00;95152.81;1042893;28;20021;-63
2021/08/01 01:23:28;;;;;;;16.58;9.50;;;;;;;13.73;100.00;95153.41;1035815;28;20271;-63
2021/08/01 01:24:08;;;;;;;17.55;9.95;;;;;;;13.63;100.00;95135.94;1035399;28;20275;-62
2021/08/01 01:24:41;;;;;;;15.75;9.75;;;;;;;13.71;100.00;95147.63;1034126;28;20273;-62
2021/08/01 01:25:36;;;;;;;13.35;9.05;;;;;;;13.68;100.00;95142.94;1030498;28;20029;-61
2021/08/01 01:26:13;;;;;;;14.02;10.02;;;;;;;13.73;100.00;95140.22;1035790;28;20018;-62
2021/08/01 01:26:52;;;;;;;23.67;12.52;;;;;;;13.73;100.00;95126.25;1039777;28;20260;-62
2021/08/01 01:27:27;;;;;;;26.08;15.40;;;;;;;13.80;100.00;95127.41;1043174;28;20024;-60
2021/08/01 01:28:05;;;;;;;19.02;13.73;;;;;;;13.81;100.00;95120.25;1035401;28;20336;-62
2021/08/01 01:28:42;;;;;;;25.45;13.57;;;;;;;13.85;100.00;95108.06;1034395;28;20761;-61
2021/08/01 01:29:27;;;;;;;17.38;12.48;;;;;;;13.84;100.00;95109.91;1031177;28;20293;-62
2021/08/01 01:30:00;;;;;;;26.80;12.98;;;;;;;13.86;100.00;95107.75;1031419;28;20571;-62
2021/08/01 01:30:30;;;;;;;15.32;10.15;;;;;;;13.86;100.00;95106.97;1031756;28;20265;-63
2021/08/01 01:31:18;;;;;;;14.73;11.10;;;;;;;13.85;100.00;95098.28;1035272;28;20491;-62
2021/08/01 01:31:48;;;;;;;17.08;10.05;;;;;;;13.80;100.00;95094.97;1030197;28;20054;-62
2021/08/01 01:32:34;;;;;;;18.55;10.00;;;;;;;13.79;100.00;95094.22;1036198;28;20032;-62
2021/08/01 01:33:07;;;;;;;17.63;10.00;;;;;;;13.71;100.00;95079.06;1039290;28;20018;-62
2021/08/01 01:33:37;;;;;;;23.20;11.07;;;;;;;13.68;100.00;95075.19;1041782;28;20032;-62
2021/08/01 01:34:30;;;;;;;15.48;10.63;;;;;;;13.64;100.00;95068.94;1038703;28;20991;-62
2021/08/01 01:35:13;;;;;;;16.80;9.02;;;;;;;13.59;100.00;95071.72;1035237;28;20026;-62
2021/08/01 01:35:49;;;;;;;14.70;9.52;;;;;;;13.56;100.00;95066.25;1040308;28;20761;-62
2021/08/01 01:36:28;;;;;;;16.67;7.45;;;;;;;13.50;100.00;95055.03;1044102;28;20358;-62
2021/08/01 01:37:00;;;;;;;15.20;9.13;;;;;;;13.43;100.00;95055.44;1039258;28;20275;-62
2021/08/01 01:37:31;;;;;;;16.88;9.93;;;;;;;13.37;100.00;95035.53;1030823;28;20038;-62
2021/08/01 01:38:01;;;;;;;19.10;10.18;;;;;;;13.37;100.00;95038.19;1031123;28;21113;-62
2021/08/01 01:38:32;;;;;;;16.88;11.23;;;;;;;13.43;100.00;95039.63;1027447;28;20027;-63
2021/08/01 01:39:04;;;;;;;18.10;11.27;;;;;;;13.44;100.00;95037.78;1029075;28;20027;-62
2021/08/01 01:39:36;;;;;;;19.10;10.50;;;;;;;13.46;100.00;95037.50;1035429;28;20030;-62
2021/08/01 01:40:08;;;;;;;16.13;10.52;;;;;;;13.41;100.00;95023.34;1027955;28;20254;-62
2021/08/01 01:40:38;;;;;;;16.73;9.48;;;;;;;13.39;100.00;95030.00;1032931;28;20264;-62
2021/08/01 01:41:09;;;;;;;14.15;9.07;;;;;;;13.33;100.00;95023.28;1039288;28;20271;-63
2021/08/01 01:41:43;;;;;;;22.92;10.75;;;;;;;13.39;100.00;95030.75;1047001;28;20468;-61
2021/08/01 01:42:15;;;;;;;18.80;11.77;;;;;;;13.41;100.00;95035.72;1043087;28;20255;-63
2021/08/01 01:42:46;;;;;;;16.70;10.80;;;;;;;13.39;100.00;95041.31;1039360;28;20363;-62
2021/08/01 01:43:16;;;;;;;15.77;9.93;;;;;;;13.36;100.00;95046.41;1039419;28;20264;-62
2021/08/01 01:43:47;;;;;;;20.67;10.13;;;;;;;13.36;100.00;95049.81;1031479;28;20193;-63
2021/08/01 01:44:17;;;;;;;18.52;11.93;;;;;;;13.40;100.00;95065.78;1034171;28;20511;-62
2021/08/01 01:44:47;;;;;;;18.45;11.00;;;;;;;13.39;100.00;95075.56;1029028;28;20384;-61
2021/08/01 01:45:18;;;;;;;21.48;12.00;;;;;;;13.41;100.00;95070.78;1029023;28;20069;-61
2021/08/01 01:45:52;;;;;;;23.60;13.68;;;;;;;13.42;100.00;95076.84;1033427;28;20025;-62
2021/08/01 01:46:23;;;;;;;16.27;10.70;;;;;;;13.40;100.00;95079.75;1031362;28;20030;-62
2021/08/01 01:46:54;;;;;;;16.48;9.48;;;;;;;13.40;100.00;95079.75;1031676;28;20277;-62
2021/08/01 01:47:24;;;;;;;19.00;10.38;;;;;;;13.42;100.00;95082.88;1039745;28;20584;-62
2021/08/01 01:47:55;;;;;;;13.77;10.27;;;;;;;13.34;100.00;95073.03;1038570;28;20037;-62
2021/08/01 01:48:25;;;;;;;17.70;11.85;;;;;;;13.41;100.00;95067.34;1030806;28;20057;-63
2021/08/01 01:48:55;;;;;;;19.65;11.23;;;;;;;13.40;100.00;95069.22;1031302;28;20030;-62
2021/08/01 01:49:26;;;;;;;18.38;10.27;;;;;;;13.36;100.00;95067.47;1034216;28;20431;-62
2021/08/01 01:49:58;;;;;;;22.48;12.00;;;;;;;13.42;100.00;95074.97;1035125;28;20044;-62
2021/08/01 01:50:28;;;;;;;19.20;10.63;;;;;;;13.36;100.00;95056.94;1039091;28;20115;-62
2021/08/01 01:50:58;;;;;;;20.52;11.63;;;;;;;13.40;100.00;95063.94;1034543;28;20399;-61
2021/08/01 01:51:29;;;;;;;12.43;10.00;;;;;;;13.39;100.00;95074.78;1035152;28;20025;-63
2021/08/01 01:51:59;;;;;;;13.30;8.98;;;;;;;13.38;100.00;95071.38;1037464;28;20026;-62
2021/08/01 01:52:30;;;;;;;16.20;9.57;;;;;;;13.32;100.00;95069.16;1038699;28;20037;-63
2021/08/01 01:53:01;;;;;;;14.82;10.32;;;;;;;13.35;100.00;95071.97;1041122;28;20087;-63
2021/08/01 01:53:35;;;;;;;13.15;9.00;;;;;;;13.37;100.00;95075.06;1043170;28;20321;-62
2021/08/01 01:54:08;;;;;;;16.15;10.95;;;;;;;13.32;100.00;95069.16;1038828;28;20034;-62
2021/08/01 01:54:38;;;;;;;17.65;10.05;;;;;;;13.35;100.00;95071.97;1036881;28;20033;-62
2021/08/01 01:55:09;;;;;;;13.48;8.93;;;;;;;13.35;100.00;95074.59;1043144;28;20760;-61
2021/08/01 01:55:40;;;;;;;14.43;9.35;;;;;;;13.37;100.00;95075.06;1039651;28;20026;-62
2021/08/01 01:56:11;;;;;;;16.30;10.82;;;;;;;13.38;100.00;95075.84;1039134;28;20029;-62
2021/08/01 01:56:42;;;;;;;19.05;10.23;;;;;;;13.34;100.00;95074.88;1038873;28;20315;-62
2021/08/01 01:57:12;;;;;;;14.85;10.48;;;;;;;13.31;100.00;95063.09;1031475;28;20288;-63
2021/08/01 01:57:43;;;;;;;16.67;10.10;;;;;;;13.37;100.00;95077.69;1035088;28;20101;-63
2021/08/01 01:58:14;;;;;;;12.77;9.73;;;;;;;13.35;100.00;95076.47;1037652;28;20032;-62
2021/08/01 01:58:44;;;;;;;18.35;10.10;;;;;;;13.35;100.00;95077.25;1043262;28;20093;-63
2021/08/01 01:59:15;;;;;;;13.25;9.75;;;;;;;13.36;100.00;95070.09;1046591;28;20028;-62
2021/08/01 01:59:45;;;;;;;13.70;9.20;;;;;;;13.36;100.00;95060.34;1038760;28;20022;-63
2021/08/01 02:00:16;;;;;;;14.98;9.95;;;;;;;13.39;100.00;95072.16;1043210;28;20013;-62
2021/08/01 02:00:46;;;;;;;14.85;9.70;;;;;;;13.34;100.00;95059.06;1042959;28;20021;-62
2021/08/01 02:01:17;;;;;;;15.80;11.30;;;;;;;13.34;100.00;95057.22;1034865;28;20121;-63
2021/08/01 02:01:47;;;;;;;16.60;10.75;;;;;;;13.35;100.00;95058.78;1038355;28;20025;-63
2021/08/01 02:02:18;;;;;;;19.10;11.25;;;;;;;13.34;100.00;95057.22;1030827;28;20034;-63
2021/08/01 02:02:48;;;;;;;13.95;9.18;;;;;;;13.29;100.00;95052.06;1030842;28;20100;-62
2021/08/01 02:03:19;;;;;;;24.45;10.88;;;;;;;13.34;100.00;95054.56;1038969;28;20033;-61
2021/08/01 02:03:51;;;;;;;18.45;10.63;;;;;;;13.33;100.00;95057.53;1039224;28;20702;-62
2021/08/01 02:04:21;;;;;;;21.40;12.05;;;;;;;13.32;100.00;95062.00;1039116;28;20029;-62
2021/08/01 02:04:54;;;;;;;18.58;11.90;;;;;;;13.32;100.00;95059.38;1038590;28;20911;-62
2021/08/01 02:05:25;;;;;;;21.38;12.77;;;;;;;13.35;100.00;95053.53;1035037;28;20084;-62
2021/08/01 02:05:55;;;;;;;15.65;9.13;;;;;;;13.35;100.00;95060.66;1035291;28;20367;-63
2021/08/01 02:06:26;;;;;;;21.42;10.15;;;;;;;13.33;100.00;95049.63;1037524;28;20026;-63
2021/08/01 02:06:57;;;;;;;15.18;9.10;;;;;;;13.29;100.00;95049.44;1043324;28;20036;-63
2021/08/01 02:07:30;;;;;;;14.88;9.63;;;;;;;13.31;100.00;95057.84;1043005;28;20041;-62
2021/08/01 02:08:01;;;;;;;14.00;9.05;;;;;;;13.32;100.00;95053.34;1043055;28;20306;-62
2021/08/01 02:08:52;;;;;;;13.68;8.88;;;;;;;13.28;100.00;95047.88;1034879;28;20300;-64
2021/08/01 02:09:33;;;;;;;17.25;9.38;;;;;;;13.26;100.00;95043.97;1026121;28;20444;-63
2021/08/01 02:10:06;;;;;;;10.65;7.80;;;;;;;13.26;100.00;95057.94;1023080;28;20880;-63
2021/08/01 02:10:51;;;;;;;14.40;9.55;;;;;;;13.27;100.00;95045.53;1027106;28;20320;-63
2021/08/01 02:11:22;;;;;;;13.82;9.27;;;;;;;13.23;100.00;95041.91;1031214;28;20280;-61
2021/08/01 02:11:57;;;;;;;17.25;8.93;;;;;;;13.25;100.00;95048.47;1029921;28;20794;-60
2021/08/01 02:12:54;;;;;;;12.70;8.65;;;;;;;13.26;100.00;95050.03;1030802;28;20647;-62
2021/08/01 02:13:36;;;;;;;15.77;9.60;;;;;;;13.19;100.00;95050.41;1033013;28;20367;-63
2021/08/01 02:14:08;;;;;;;21.73;9.63;;;;;;;13.24;100.00;95056.63;1034657;28;20305;-63
2021/08/01 02:15:11;;;;;;;18.00;10.70;;;;;;;13.26;100.00;95052.66;1035169;28;20820;-61
2021/08/01 02:15:47;;;;;;;15.07;9.43;;;;;;;13.25;100.00;95051.09;1035509;28;20312;-62
2021/08/01 02:16:18;;;;;;;13.43;9.57;;;;;;;13.24;100.00;95057.44;1039235;28;20341;-63
2021/08/01 02:16:49;;;;;;;16.80;9.75;;;;;;;13.20;100.00;95056.44;1038974;28;20334;-63
2021/08/01 02:17:24;;;;;;;16.63;10.55;;;;;;;13.20;100.00;95059.06;1030741;28;20487;-62
2021/08/01 02:17:59;;;;;;;20.55;10.50;;;;;;;13.22;100.00;95056.94;1038961;28;20267;-63
2021/08/01 02:18:49;;;;;;;15.18;9.48;;;;;;;13.20;100.00;95054.56;1036493;28;20356;-63
2021/08/01 02:19:19;;;;;;;12.38;8.70;;;;;;;13.19;100.00;95047.75;1043836;28;20780;-61
2021/08/01 02:19:50;;;;;;;13.27;8.05;;;;;;;13.18;100.00;95045.44;1039369;28;20037;-62
2021/08/01 02:20:23;;;;;;;13.88;9.30;;;;;;;13.17;100.00;95049.91;1033612;28;20030;-62
2021/08/01 02:20:54;;;;;;;19.17;9.68;;;;;;;13.11;100.00;95029.22;1034249;28;20104;-62
2021/08/01 02:21:24;;;;;;;21.88;10.30;;;;;;;13.16;100.00;95037.81;1034940;28;20809;-60
2021/08/01 02:21:55;;;;;;;19.65;9.98;;;;;;;13.15;100.00;95049.44;1038401;28;20030;-62
2021/08/01 02:22:25;;;;;;;13.30;8.20;;;;;;;13.07;100.00;95055.38;1042600;28;20028;-63
2021/08/01 02:22:57;;;;;;;26.73;11.68;;;;;;;13.11;100.00;95066.09;1034535;28;20044;-63
2021/08/01 02:23:30;;;;;;;18.88;10.63;;;;;;;13.02;100.00;95062.63;1036091;28;20029;-63
2021/08/01 02:24:01;;;;;;;14.55;9.13;;;;;;;13.03;100.00;95080.75;1034136;28;20279;-63
2021/08/01 02:24:35;;;;;;;19.00;9.57;;;;;;;12.97;100.00;95082.69;1035861;28;20376;-62
2021/08/01 02:25:08;;;;;;;16.83;9.60;;;;;;;12.95;100.00;95084.84;1035627;28;20718;-62
2021/08/01 02:25:39;;;;;;;13.32;8.70;;;;;;;12.93;100.00;95094.13;1031963;28;20040;-62
2021/08/01 02:26:10;;;;;;;19.42;9.70;;;;;;;12.88;100.00;95095.00;1036111;28;20268;-63
2021/08/01 02:26:40;;;;;;;18.08;9.50;;;;;;;12.88;100.00;95105.53;1039485;28;20522;-63
2021/08/01 02:27:11;;;;;;;19.65;10.35;;;;;;;12.88;100.00;95096.88;1034977;28;20265;-63
2021/08/01 02:27:44;;;;;;;22.67;9.95;;;;;;;12.82;100.00;95096.16;1038961;28;20487;-61
2021/08/01 02:28:15;;;;;;;11.95;8.65;;;;;;;12.83;100.00;95089.03;1038711;28;20039;-63
2021/08/01 02:28:46;;;;;;;19.63;10.15;;;;;;;12.77;100.00;95088.34;1035963;28;20271;-62
2021/08/01 02:29:17;;;;;;;19.02;11.32;;;;;;;12.87;100.00;95090.78;1039083;28;20365;-62
2021/08/01 02:29:48;;;;;;;20.45;12.40;;;;;;;12.83;100.00;95086.41;1035282;28;20312;-63
2021/08/01 02:30:19;;;;;;;26.35;12.20;;;;;;;12.92;100.00;95100.47;1037912;28;20029;-62
2021/08/01 02:30:54;;;;;;;17.55;10.88;;;;;;;12.87;100.00;95092.66;1034972;28;20272;-62
2021/08/01 02:31:24;;;;;;;18.90;11.05;;;;;;;12.85;100.00;95085.06;1037577;28;20616;-63
2021/08/01 02:31:55;;;;;;;14.38;9.00;;;;;;;12.87;100.00;95093.41;1029830;28;20270;-60
2021/08/01 02:32:25;;;;;;;19.52;11.02;;;;;;;12.87;100.00;95087.38;1030779;28;20018;-62
2021/08/01 02:32:56;;;;;;;19.05;9.00;;;;;;;12.81;100.00;95072.75;1031498;28;20033;-63
2021/08/01 02:33:29;;;;;;;23.08;11.73;;;;;;;12.81;100.00;95068.28;1034910;28;20025;-63